Time;durP1;ratioP1;P1;durP2;ratioP2;P2;SDS_P1;SDS_P2;PMS_P1;PMS_P2;Temp;Humidity;BMP_temperature;BMP_pressure;BME280_temperature;BME280_humidity;BME280_pressure;Samples;Min_cycle;Max_cycle;Signal;HPM_P1;HPM_P2
2022/12/21 05:32:49;;;;;;;9.52;4.13;;;9.70;88.70;;;;;;4934335;29;20503;-80
2022/12/21 05:35:15;;;;;;;14.48;4.65;;;9.80;88.70;;;;;;4936459;29;20043;-80
2022/12/21 05:37:40;;;;;;;18.25;5.38;;;9.80;88.40;;;;;;4937467;29;20034;-80
2022/12/21 05:40:07;;;;;;;8.77;4.72;;;9.70;88.20;;;;;;4939752;29;20087;-80
2022/12/21 05:42:32;;;;;;;15.68;4.93;;;9.70;88.40;;;;;;4938362;29;20047;-80
2022/12/21 05:44:58;;;;;;;7.82;4.32;;;9.80;88.60;;;;;;4938455;29;20028;-80
2022/12/21 05:47:23;;;;;;;6.53;4.03;;;9.90;88.80;;;;;;4939063;29;20028;-80
2022/12/21 05:49:49;;;;;;;11.43;4.25;;;9.80;88.90;;;;;;4937088;29;20403;-80
2022/12/21 05:52:15;;;;;;;8.10;4.57;;;9.90;88.60;;;;;;4938577;29;20046;-82
2022/12/21 05:54:41;;;;;;;12.82;4.13;;;9.90;88.80;;;;;;4936201;29;20067;-86
2022/12/21 05:57:06;;;;;;;10.25;4.85;;;9.90;88.70;;;;;;4941485;29;20104;-82
2022/12/21 05:59:32;;;;;;;12.10;5.20;;;9.90;88.70;;;;;;4937300;29;20503;-79
2022/12/21 06:01:58;;;;;;;12.52;5.38;;;9.80;88.90;;;;;;4935819;29;20020;-78
2022/12/21 06:04:23;;;;;;;8.65;4.40;;;9.90;89.10;;;;;;4943435;29;20120;-85
2022/12/21 06:06:49;;;;;;;6.55;4.82;;;9.90;88.90;;;;;;4929364;29;20123;-83
2022/12/21 06:09:15;;;;;;;9.30;4.97;;;10.10;88.80;;;;;;4919948;29;20035;-86
2022/12/21 06:11:40;;;;;;;15.68;5.78;;;10.10;88.80;;;;;;4933566;29;20130;-86
2022/12/21 06:14:06;;;;;;;11.40;5.07;;;10.10;88.70;;;;;;4941141;29;20028;-89
2022/12/21 06:16:32;;;;;;;11.10;4.75;;;10.10;88.70;;;;;;4937353;29;20038;-86
2022/12/21 06:19:08;;;;;;;10.05;4.88;;;10.10;88.80;;;;;;4946012;29;20056;-87
2022/12/21 06:21:34;;;;;;;9.05;4.80;;;9.90;88.40;;;;;;4923314;29;20032;-87
2022/12/21 06:23:59;;;;;;;14.50;5.60;;;10.00;89.10;;;;;;4920994;29;20140;-86
2022/12/21 06:26:25;;;;;;;8.18;4.50;;;10.00;88.80;;;;;;4921406;29;20027;-83
2022/12/21 06:28:52;;;;;;;10.10;4.68;;;10.00;89.00;;;;;;4920420;29;20028;-81
2022/12/21 06:31:19;;;;;;;13.07;5.13;;;10.00;88.90;;;;;;4937735;29;20055;-82
2022/12/21 06:33:45;;;;;;;8.90;4.80;;;10.00;88.90;;;;;;4937697;29;20115;-82
2022/12/21 06:36:14;;;;;;;9.65;5.18;;;10.00;88.80;;;;;;4940060;29;20051;-82
2022/12/21 06:38:39;;;;;;;11.60;6.47;;;9.90;88.90;;;;;;4938018;29;20118;-82
2022/12/21 06:41:11;;;;;;;12.95;4.82;;;9.90;89.00;;;;;;4937761;29;20063;-82
2022/12/21 06:43:37;;;;;;;13.35;5.32;;;9.90;89.10;;;;;;4936447;29;20055;-82
2022/12/21 06:46:06;;;;;;;10.82;5.60;;;10.00;89.10;;;;;;4936630;29;20035;-82
2022/12/21 06:48:33;;;;;;;15.82;8.38;;;10.00;89.40;;;;;;4936282;29;20062;-81
2022/12/21 06:51:01;;;;;;;14.18;6.20;;;9.90;89.10;;;;;;4937760;29;20027;-82
2022/12/21 06:53:35;;;;;;;15.88;6.55;;;10.00;89.40;;;;;;4922969;29;20024;-88
2022/12/21 06:56:21;;;;;;;12.75;5.88;;;10.10;89.40;;;;;;4922304;29;20036;-85
2022/12/21 06:59:07;;;;;;;13.43;5.78;;;10.10;89.10;;;;;;4908504;29;20032;-82
2022/12/21 07:01:34;;;;;;;16.60;6.47;;;10.10;89.10;;;;;;4919606;29;20079;-80
2022/12/21 07:04:01;;;;;;;11.88;6.55;;;10.10;89.00;;;;;;4918276;29;20028;-80
2022/12/21 07:06:29;;;;;;;9.07;4.53;;;10.10;89.30;;;;;;4921699;29;20032;-80
2022/12/21 07:08:56;;;;;;;15.93;6.32;;;10.20;89.40;;;;;;4937408;29;20028;-81
2022/12/21 07:11:26;;;;;;;16.13;7.90;;;10.20;89.30;;;;;;4925915;29;20020;-81
2022/12/21 07:13:52;;;;;;;15.77;7.82;;;10.10;89.50;;;;;;4939378;29;20028;-81
2022/12/21 07:16:21;;;;;;;19.17;7.80;;;10.20;89.50;;;;;;4947563;29;20027;-81
2022/12/21 07:18:47;;;;;;;20.02;8.55;;;10.20;89.00;;;;;;4927068;29;20066;-80
2022/12/21 07:21:15;;;;;;;22.73;9.07;;;10.20;89.40;;;;;;4947653;29;20031;-81
2022/12/21 07:23:42;;;;;;;17.88;9.27;;;10.20;89.40;;;;;;4947654;29;20861;-81
2022/12/21 07:26:11;;;;;;;14.10;6.93;;;10.10;89.20;;;;;;4945740;29;20678;-81
2022/12/21 07:28:37;;;;;;;16.58;7.05;;;10.20;89.60;;;;;;4946396;29;20432;-82
2022/12/21 07:31:04;;;;;;;16.60;9.45;;;10.30;89.40;;;;;;4949381;29;20107;-81
2022/12/21 07:33:30;;;;;;;17.40;8.20;;;10.30;89.50;;;;;;4949175;29;20031;-81
2022/12/21 07:36:01;;;;;;;15.95;8.30;;;10.30;89.70;;;;;;4948550;29;20028;-81
2022/12/21 07:38:28;;;;;;;19.42;8.52;;;10.30;89.60;;;;;;4949159;29;20033;-81
2022/12/21 07:40:57;;;;;;;15.57;8.30;;;10.40;89.70;;;;;;4949331;29;20075;-81
2022/12/21 07:43:24;;;;;;;21.60;8.50;;;10.40;89.60;;;;;;4949355;29;20027;-82
2022/12/21 07:45:50;;;;;;;20.70;7.80;;;10.40;89.60;;;;;;4931907;29;20036;-81
2022/12/21 07:48:16;;;;;;;18.40;8.35;;;10.30;89.50;;;;;;4948236;29;20063;-81
2022/12/21 07:50:41;;;;;;;14.48;7.20;;;10.40;89.80;;;;;;4932032;29;20023;-81
2022/12/21 07:53:07;;;;;;;13.63;6.60;;;10.50;89.80;;;;;;4949746;29;20024;-81
2022/12/21 07:55:33;;;;;;;13.18;6.10;;;10.50;89.70;;;;;;4948204;29;20019;-81
2022/12/21 07:58:00;;;;;;;10.52;5.78;;;10.50;89.60;;;;;;4933172;29;20121;-81
2022/12/21 08:00:26;;;;;;;15.15;6.28;;;10.50;89.90;;;;;;4947264;29;20775;-82
2022/12/21 08:02:51;;;;;;;11.88;5.07;;;10.50;89.80;;;;;;4941380;29;20036;-82
2022/12/21 08:05:18;;;;;;;8.10;4.03;;;10.60;89.80;;;;;;4915179;29;20042;-82
2022/12/21 08:07:44;;;;;;;8.32;4.43;;;10.50;89.70;;;;;;4929036;29;20563;-82
2022/12/21 08:10:10;;;;;;;9.38;4.22;;;10.50;90.00;;;;;;4928870;29;20044;-82
2022/12/21 08:12:36;;;;;;;10.10;4.72;;;10.60;89.90;;;;;;4928387;29;20034;-82
2022/12/21 08:15:01;;;;;;;7.25;4.00;;;10.60;90.10;;;;;;4930145;29;20039;-82
2022/12/21 08:17:27;;;;;;;4.82;3.33;;;10.60;89.80;;;;;;4933656;29;20106;-77
2022/12/21 08:19:53;;;;;;;7.30;3.45;;;10.70;90.00;;;;;;4927599;29;20102;-86
2022/12/21 08:22:18;;;;;;;4.93;2.80;;;10.70;89.80;;;;;;4928482;29;20514;-85
2022/12/21 08:24:46;;;;;;;5.45;3.00;;;10.70;89.90;;;;;;4938795;29;20108;-84
2022/12/21 08:27:13;;;;;;;5.03;2.72;;;10.80;90.10;;;;;;4935750;29;20098;-85
2022/12/21 08:29:39;;;;;;;8.35;3.22;;;10.80;90.10;;;;;;4936779;29;20023;-85
2022/12/21 08:32:05;;;;;;;10.32;3.08;;;10.80;90.10;;;;;;4938346;29;20138;-90
2022/12/21 08:34:30;;;;;;;7.45;3.50;;;10.80;90.20;;;;;;4933414;29;20020;-89
2022/12/21 08:36:56;;;;;;;8.73;4.28;;;10.90;90.20;;;;;;4934102;29;20063;-88
2022/12/21 08:39:22;;;;;;;5.50;3.97;;;10.80;90.20;;;;;;4934037;29;20039;-85
2022/12/21 08:41:48;;;;;;;8.10;4.03;;;10.80;90.40;;;;;;4935277;29;20039;-84
2022/12/21 08:44:13;;;;;;;6.60;3.83;;;10.90;90.40;;;;;;4936494;29;20103;-83
2022/12/21 08:46:42;;;;;;;9.38;4.93;;;10.90;90.40;;;;;;4935693;29;20564;-87
2022/12/21 08:49:07;;;;;;;11.70;4.40;;;11.00;90.30;;;;;;4917353;29;20028;-84
2022/12/21 08:51:34;;;;;;;8.68;3.28;;;11.00;90.30;;;;;;4936820;29;20034;-84
2022/12/21 08:54:00;;;;;;;9.55;3.85;;;11.00;90.30;;;;;;4933503;29;20066;-85
2022/12/21 08:56:26;;;;;;;5.55;2.72;;;11.10;90.20;;;;;;4936531;29;20063;-85
2022/12/21 08:58:52;;;;;;;8.55;4.10;;;11.10;90.30;;;;;;4919544;29;20135;-86
2022/12/21 09:01:19;;;;;;;7.47;3.45;;;11.20;90.40;;;;;;4919790;29;20190;-87
2022/12/21 09:03:45;;;;;;;7.05;3.72;;;11.20;90.30;;;;;;4937454;29;20510;-88
2022/12/21 09:06:11;;;;;;;9.50;3.42;;;11.20;90.30;;;;;;4920772;29;20040;-86
2022/12/21 09:08:37;;;;;;;8.52;4.15;;;11.20;90.10;;;;;;4936032;29;20028;-84
2022/12/21 09:11:11;;;;;;;7.18;4.00;;;11.20;90.20;;;;;;4917524;29;20043;-84
2022/12/21 09:13:37;;;;;;;6.80;3.58;;;11.30;90.20;;;;;;4919371;29;20664;-83
2022/12/21 09:16:03;;;;;;;7.13;3.35;;;11.30;90.20;;;;;;4936457;29;20031;-84
2022/12/21 09:18:29;;;;;;;7.70;3.40;;;11.30;90.00;;;;;;4936527;29;20024;-83
2022/12/21 09:20:59;;;;;;;5.00;3.17;;;11.30;90.10;;;;;;4937793;29;20031;-83
2022/12/21 09:23:25;;;;;;;12.40;3.60;;;11.30;90.10;;;;;;4937049;29;20023;-84
2022/12/21 09:25:51;;;;;;;4.75;3.45;;;11.40;90.20;;;;;;4935941;29;20448;-84
2022/12/21 09:28:16;;;;;;;5.30;2.55;;;11.30;90.20;;;;;;4919975;29;20020;-85
2022/12/21 09:30:42;;;;;;;6.95;2.92;;;11.40;90.30;;;;;;4937087;29;20064;-83
2022/12/21 09:33:08;;;;;;;7.95;3.80;;;11.40;90.30;;;;;;4919682;29;20038;-84
2022/12/21 09:35:38;;;;;;;4.47;2.65;;;11.40;90.30;;;;;;4923078;29;20122;-84
2022/12/21 09:38:04;;;;;;;8.25;3.25;;;11.50;90.20;;;;;;4937312;29;20024;-83
2022/12/21 09:40:31;;;;;;;6.75;3.25;;;11.50;90.30;;;;;;4936763;29;20110;-83
2022/12/21 09:43:00;;;;;;;10.02;4.20;;;11.60;90.20;;;;;;4937436;29;20091;-83
2022/12/21 09:45:53;;;;;;;9.90;3.45;;;11.60;90.20;;;;;;4936339;29;20032;-83
2022/12/21 09:48:23;;;;;;;8.20;3.70;;;11.60;90.30;;;;;;4936630;29;20035;-83
2022/12/21 09:50:55;;;;;;;7.65;4.28;;;11.70;90.20;;;;;;4937089;29;20018;-83
2022/12/21 09:53:37;;;;;;;9.93;3.55;;;11.70;90.10;;;;;;4937307;29;20030;-83
2022/12/21 09:56:05;;;;;;;8.25;3.47;;;11.60;90.10;;;;;;4936513;29;20054;-85
2022/12/21 09:58:51;;;;;;;8.43;3.60;;;11.70;90.50;;;;;;4937039;29;20159;-84
2022/12/21 10:01:26;;;;;;;9.05;3.85;;;11.70;90.40;;;;;;4937255;29;20541;-85
2022/12/21 10:04:06;;;;;;;4.32;2.35;;;11.70;90.30;;;;;;4936829;29;20035;-84
2022/12/21 10:07:26;;;;;;;5.43;2.85;;;11.80;90.40;;;;;;4930255;29;20035;-85
2022/12/21 10:09:52;;;;;;;;;;;11.80;90.30;;;;;;4873769;29;20112;-85
2022/12/21 10:12:26;;;;;;;4.65;3.00;;;11.80;90.40;;;;;;4906159;29;19949;-85
2022/12/21 10:15:23;;;;;;;6.60;2.40;;;11.80;90.30;;;;;;4934182;29;20075;-86
2022/12/21 10:18:20;;;;;;;4.20;2.40;;;11.80;90.30;;;;;;4933802;29;20025;-85
2022/12/21 10:20:59;;;;;;;6.35;2.70;;;11.90;90.20;;;;;;4919611;29;20044;-85
2022/12/21 10:23:34;;;;;;;5.38;3.28;;;11.90;90.30;;;;;;4935102;29;20111;-86
2022/12/21 10:26:03;;;;;;;10.63;3.40;;;11.90;90.30;;;;;;4936594;29;20055;-85
2022/12/21 10:28:43;;;;;;;5.20;2.72;;;12.00;90.50;;;;;;4935112;29;20031;-84
2022/12/21 10:31:12;;;;;;;4.18;2.45;;;12.00;90.50;;;;;;4933593;29;20397;-86
2022/12/21 10:33:43;;;;;;;7.40;3.50;;;12.00;90.40;;;;;;4917986;29;20036;-85
2022/12/21 10:36:22;;;;;;;4.53;2.42;;;12.00;90.40;;;;;;4931273;29;20028;-84
2022/12/21 10:38:48;;;;;;;4.68;2.22;;;12.00;90.50;;;;;;4935546;29;20039;-84
2022/12/21 10:41:19;;;;;;;4.90;2.58;;;12.10;90.60;;;;;;4935789;29;20027;-84
2022/12/21 10:43:48;;;;;;;5.97;2.72;;;12.10;90.50;;;;;;4939302;29;20070;-85
2022/12/21 10:46:17;;;;;;;4.55;2.35;;;12.20;90.40;;;;;;4921531;29;20055;-85
2022/12/21 10:48:43;;;;;;;5.50;2.70;;;12.30;90.50;;;;;;4921530;29;20504;-86
2022/12/21 10:51:32;;;;;;;4.90;2.38;;;12.30;90.30;;;;;;4938133;29;20541;-78
2022/12/21 10:54:01;;;;;;;2.83;2.17;;;12.30;90.30;;;;;;4926277;29;20035;-86
2022/12/21 10:56:29;;;;;;;5.38;2.83;;;12.30;90.30;;;;;;4922829;29;20034;-86
2022/12/21 10:59:11;;;;;;;3.78;2.53;;;12.30;90.20;;;;;;4927105;29;20508;-85
2022/12/21 11:01:37;;;;;;;4.63;2.72;;;12.50;90.20;;;;;;4922905;29;20032;-86
2022/12/21 11:04:14;;;;;;;5.63;2.80;;;12.50;90.20;;;;;;4940171;29;20031;-84
2022/12/21 11:06:53;;;;;;;3.97;2.45;;;12.60;90.20;;;;;;4923119;29;20095;-84
2022/12/21 11:09:34;;;;;;;5.17;2.80;;;12.60;90.30;;;;;;4939444;29;20032;-85
2022/12/21 11:12:19;;;;;;;4.60;2.75;;;12.70;90.30;;;;;;4928618;29;20084;-86
2022/12/21 11:14:46;;;;;;;4.45;2.60;;;12.70;90.20;;;;;;4939013;29;20027;-86
2022/12/21 11:17:32;;;;;;;6.07;2.85;;;12.80;90.10;;;;;;4942827;29;20521;-85
2022/12/21 11:20:13;;;;;;;7.50;3.00;;;12.80;90.10;;;;;;4937306;29;20046;-89
2022/12/21 11:22:43;;;;;;;6.97;2.58;;;12.80;90.10;;;;;;4938342;29;20031;-82
2022/12/21 11:25:21;;;;;;;8.60;2.70;;;12.90;90.00;;;;;;4938576;29;20028;-86
2022/12/21 11:27:50;;;;;;;4.65;2.20;;;12.90;90.20;;;;;;4923135;29;20032;-86
2022/12/21 11:30:21;;;;;;;4.72;2.20;;;12.90;90.00;;;;;;4938782;29;20024;-87
2022/12/21 11:32:49;;;;;;;4.88;2.10;;;13.00;90.20;;;;;;4922512;29;20118;-87
2022/12/21 11:35:18;;;;;;;4.47;2.20;;;13.00;90.10;;;;;;4922668;29;20031;-85
2022/12/21 11:37:46;;;;;;;5.63;2.35;;;13.00;90.10;;;;;;4923116;29;20114;-84
2022/12/21 11:40:12;;;;;;;4.57;1.92;;;13.00;90.20;;;;;;4921382;29;20027;-82
2022/12/21 11:42:57;;;;;;;4.28;2.00;;;13.00;90.40;;;;;;4939462;29;20027;-85
2022/12/21 11:45:47;;;;;;;6.00;2.35;;;13.00;90.40;;;;;;4932878;29;20078;-86
2022/12/21 11:48:52;;;;;;;7.60;1.67;;;13.10;90.40;;;;;;4934653;29;20039;-84
2022/12/21 11:51:47;;;;;;;3.13;1.40;;;13.20;90.30;;;;;;4939253;29;20542;-85
2022/12/21 11:54:29;;;;;;;7.05;2.25;;;13.20;90.10;;;;;;4939758;29;20028;-85
2022/12/21 11:57:44;;;;;;;5.80;1.90;;;13.30;90.00;;;;;;4940061;29;20027;-84
2022/12/21 12:00:18;;;;;;;5.78;1.67;;;13.30;90.10;;;;;;4914597;29;20047;-84
2022/12/21 12:03:20;;;;;;;6.18;1.90;;;13.40;90.20;;;;;;4936423;29;20478;-83
2022/12/21 12:05:58;;;;;;;5.75;2.15;;;13.50;90.20;;;;;;4936651;29;20133;-83
2022/12/21 12:08:23;;;;;;;4.35;1.60;;;13.50;90.10;;;;;;4937462;29;20105;-84
2022/12/21 12:11:11;;;;;;;6.38;1.98;;;13.60;89.90;;;;;;4936320;29;20543;-84
2022/12/21 12:13:57;;;;;;;15.40;2.47;;;13.60;89.80;;;;;;4936927;29;20066;-82
2022/12/21 12:16:23;;;;;;;11.07;2.25;;;13.70;89.90;;;;;;4919401;29;20063;-84
2022/12/21 12:18:57;;;;;;;8.60;1.58;;;13.70;89.50;;;;;;4938683;29;20035;-84
2022/12/21 12:21:39;;;;;;;6.55;1.90;;;13.80;89.60;;;;;;4921584;29;20070;-83
2022/12/21 12:24:20;;;;;;;12.75;2.15;;;13.80;89.50;;;;;;4938717;29;20086;-83
2022/12/21 12:27:02;;;;;;;6.75;1.42;;;13.80;89.40;;;;;;4931652;29;20039;-82
2022/12/21 12:29:33;;;;;;;8.20;1.77;;;13.80;89.50;;;;;;4933305;29;20399;-81
2022/12/21 12:32:32;;;;;;;5.82;1.77;;;13.80;89.40;;;;;;4938808;29;20052;-81
2022/12/21 12:35:24;;;;;;;5.60;1.13;;;13.80;89.50;;;;;;4939125;29;20022;-82
2022/12/21 12:38:05;;;;;;;7.88;1.38;;;13.80;89.50;;;;;;4936956;29;20036;-81
2022/12/21 12:41:08;;;;;;;5.57;1.42;;;13.80;89.30;;;;;;4937548;29;20480;-81
2022/12/21 12:43:39;;;;;;;4.38;1.23;;;13.90;89.20;;;;;;4934765;29;20028;-81
2022/12/21 12:46:23;;;;;;;6.93;1.40;;;14.00;89.10;;;;;;4934204;29;20035;-81
2022/12/21 12:49:14;;;;;;;4.50;1.65;;;14.10;89.10;;;;;;4938077;29;20030;-80
2022/12/21 12:51:58;;;;;;;10.55;1.40;;;14.20;88.90;;;;;;4930549;29;20067;-83
2022/12/21 12:54:50;;;;;;;7.32;1.20;;;14.30;88.70;;;;;;4920407;29;20102;-82
2022/12/21 12:57:25;;;;;;;3.92;1.15;;;14.30;88.50;;;;;;4938138;29;20071;-82
2022/12/21 13:00:07;;;;;;;8.80;1.23;;;14.30;88.30;;;;;;4938538;29;20091;-81
2022/12/21 13:02:36;;;;;;;5.03;1.27;;;14.30;88.30;;;;;;4934660;29;20052;-80
2022/12/21 13:05:25;;;;;;;9.27;1.27;;;14.30;88.40;;;;;;4926722;29;20039;-78
2022/12/21 13:08:03;;;;;;;12.73;1.52;;;14.30;88.60;;;;;;4917907;29;20109;-79
2022/12/21 13:10:43;;;;;;;10.05;1.60;;;14.50;88.40;;;;;;4920960;29;20485;-80
2022/12/21 13:13:17;;;;;;;10.77;1.52;;;14.50;88.30;;;;;;4935363;29;20040;-81
2022/12/21 13:16:00;;;;;;;9.57;1.45;;;14.50;88.10;;;;;;4937598;29;20499;-79
2022/12/21 13:18:38;;;;;;;12.82;2.63;;;14.50;88.10;;;;;;4936189;29;20123;-79
2022/12/21 13:21:06;;;;;;;7.25;1.58;;;14.50;88.00;;;;;;4931985;29;20052;-81
2022/12/21 13:23:48;;;;;;;7.30;1.60;;;14.50;88.10;;;;;;4933455;29;20032;-80
2022/12/21 13:26:23;;;;;;;10.90;2.25;;;14.40;88.10;;;;;;4937256;29;20034;-83
2022/12/21 13:29:03;;;;;;;10.93;2.13;;;14.40;88.10;;;;;;4938236;29;20016;-83
2022/12/21 13:31:39;;;;;;;15.60;2.80;;;14.40;88.10;;;;;;4937348;29;20499;-82
2022/12/21 13:34:11;;;;;;;5.25;1.50;;;14.30;88.20;;;;;;4934245;29;20059;-81
2022/12/21 13:36:39;;;;;;;4.57;1.20;;;14.40;88.30;;;;;;4937309;29;20110;-81
2022/12/21 13:39:22;;;;;;;11.13;1.50;;;14.30;88.20;;;;;;4938090;29;20051;-79
2022/12/21 13:42:00;;;;;;;8.05;1.60;;;14.30;88.30;;;;;;4920352;29;21936;-82
2022/12/21 13:44:42;;;;;;;5.90;1.88;;;14.30;88.40;;;;;;4938317;29;20039;-81
2022/12/21 13:47:10;;;;;;;11.88;2.50;;;14.20;88.50;;;;;;4935668;29;20127;-88
2022/12/21 13:49:52;;;;;;;7.25;2.10;;;14.30;88.60;;;;;;4934408;29;20032;-88
2022/12/21 13:52:26;;;;;;;7.45;1.88;;;14.30;88.60;;;;;;4915927;29;20040;-87
2022/12/21 13:55:00;;;;;;;15.80;2.75;;;14.30;88.60;;;;;;4916836;29;20028;-87
2022/12/21 13:57:35;;;;;;;13.57;2.13;;;14.20;88.60;;;;;;4924792;29;20039;-88
2022/12/21 14:00:22;;;;;;;12.15;2.80;;;14.20;88.80;;;;;;4936015;29;20035;-87
2022/12/21 14:02:55;;;;;;;9.98;2.40;;;14.30;88.70;;;;;;4921854;29;20032;-89
2022/12/21 14:05:27;;;;;;;13.02;2.60;;;14.30;88.60;;;;;;4933219;29;20024;-87
2022/12/21 14:08:36;;;;;;;10.65;2.67;;;14.20;88.50;;;;;;4935197;29;20074;-87
2022/12/21 14:11:39;;;;;;;16.48;2.35;;;14.20;88.70;;;;;;4912430;29;20032;-86
2022/12/21 14:14:24;;;;;;;15.27;2.83;;;14.30;88.70;;;;;;4933783;29;20083;-86
2022/12/21 14:16:59;;;;;;;20.67;3.25;;;14.30;88.70;;;;;;4921566;29;20114;-86
2022/12/21 14:19:26;;;;;;;16.00;2.22;;;14.40;88.50;;;;;;4938353;29;20031;-87
2022/12/21 14:21:52;;;;;;;11.65;2.65;;;14.40;88.30;;;;;;4939105;29;20603;-87
2022/12/21 14:24:40;;;;;;;16.55;3.28;;;14.40;88.20;;;;;;4938994;29;20031;-87
2022/12/21 14:27:09;;;;;;;13.57;2.47;;;14.40;88.30;;;;;;4937737;29;20571;-87
2022/12/21 14:29:40;;;;;;;12.90;2.38;;;14.30;88.10;;;;;;4936208;29;20052;-87
2022/12/21 14:32:13;;;;;;;18.25;2.90;;;14.30;88.30;;;;;;4917172;29;20116;-87
2022/12/21 14:34:49;;;;;;;12.88;2.45;;;14.30;88.30;;;;;;4936965;29;20606;-87
2022/12/21 14:37:15;;;;;;;23.17;2.78;;;14.20;88.40;;;;;;4912746;29;20070;-87
2022/12/21 14:39:44;;;;;;;14.95;2.88;;;14.30;88.40;;;;;;4916029;29;20024;-86
2022/12/21 14:42:36;;;;;;;14.90;2.80;;;14.20;88.50;;;;;;4913176;29;20055;-87
2022/12/21 14:45:11;;;;;;;8.40;3.28;;;14.20;88.50;;;;;;4929754;29;20533;-86
2022/12/21 14:47:47;;;;;;;10.35;2.28;;;14.20;88.40;;;;;;4917916;29;20123;-86
2022/12/21 14:50:18;;;;;;;8.73;2.05;;;14.20;88.30;;;;;;4917423;29;20034;-86
2022/12/21 14:52:59;;;;;;;14.00;2.03;;;14.20;88.40;;;;;;4919016;29;20159;-85
2022/12/21 14:55:35;;;;;;;14.30;2.47;;;14.20;88.40;;;;;;4919035;29;20144;-86
2022/12/21 14:58:22;;;;;;;8.35;2.00;;;14.20;88.40;;;;;;4934176;29;20079;-86
2022/12/21 15:01:07;;;;;;;9.15;2.17;;;14.20;88.50;;;;;;4917663;29;20043;-86
2022/12/21 15:03:42;;;;;;;17.10;2.42;;;14.20;88.50;;;;;;4918338;29;20028;-87
2022/12/21 15:06:10;;;;;;;10.15;2.55;;;14.10;88.60;;;;;;4931349;29;20056;-85
2022/12/21 15:08:45;;;;;;;8.35;2.08;;;14.10;88.60;;;;;;4918848;29;20143;-85
2022/12/21 15:11:25;;;;;;;12.57;2.17;;;14.10;88.80;;;;;;4917480;29;20028;-86
2022/12/21 15:14:01;;;;;;;10.60;1.73;;;14.10;88.70;;;;;;4909081;29;20053;-86
2022/12/21 15:16:30;;;;;;;12.82;2.25;;;14.00;88.70;;;;;;4917866;29;20039;-87
2022/12/21 15:19:12;;;;;;;11.70;2.05;;;14.00;88.80;;;;;;4918951;29;20036;-86
2022/12/21 15:22:03;;;;;;;7.13;2.22;;;14.00;89.10;;;;;;4920422;29;20043;-87
2022/12/21 15:24:31;;;;;;;6.10;1.80;;;14.00;89.20;;;;;;4919009;29;20047;-85
2022/12/21 15:27:03;;;;;;;6.47;1.90;;;13.90;89.30;;;;;;4932011;29;20178;-86
2022/12/21 15:29:46;;;;;;;10.80;2.08;;;13.90;89.30;;;;;;4916436;29;20028;-89
2022/12/21 15:32:25;;;;;;;12.52;2.17;;;13.90;89.40;;;;;;4924009;29;20041;-89
2022/12/21 15:35:11;;;;;;;5.00;2.20;;;13.80;89.30;;;;;;4919356;29;20033;-85
2022/12/21 15:37:40;;;;;;;10.45;1.85;;;13.80;89.40;;;;;;4924063;29;20032;-87
2022/12/21 15:40:31;;;;;;;10.40;2.83;;;13.80;89.40;;;;;;4937699;29;20044;-82
2022/12/21 15:43:10;;;;;;;10.68;2.13;;;13.80;89.50;;;;;;4918134;29;20114;-80
2022/12/21 15:45:52;;;;;;;6.63;2.33;;;13.90;89.50;;;;;;4913930;29;20032;-80
2022/12/21 15:48:28;;;;;;;8.23;2.30;;;13.90;89.30;;;;;;4920134;29;20531;-79
2022/12/21 15:51:00;;;;;;;11.48;2.53;;;13.90;89.50;;;;;;4919477;29;20843;-82
2022/12/21 15:53:26;;;;;;;8.88;2.10;;;13.90;89.20;;;;;;4917342;29;20547;-82
2022/12/21 15:55:54;;;;;;;8.07;2.30;;;14.00;89.30;;;;;;4920843;29;20122;-82
2022/12/21 15:58:34;;;;;;;11.50;2.25;;;13.90;89.30;;;;;;4916448;29;20024;-82
2022/12/21 16:01:31;;;;;;;9.88;1.90;;;13.90;89.20;;;;;;4922788;29;20067;-82
2022/12/21 16:03:57;;;;;;;10.63;2.20;;;13.80;89.30;;;;;;4911430;29;20032;-82
2022/12/21 16:06:26;;;;;;;13.57;3.33;;;13.80;89.40;;;;;;4934960;29;20114;-82
2022/12/21 16:08:53;;;;;;;17.23;2.90;;;13.90;89.50;;;;;;4921640;29;20515;-81
2022/12/21 16:11:37;;;;;;;13.20;2.90;;;13.80;89.50;;;;;;4920135;29;20032;-81
2022/12/21 16:14:10;;;;;;;7.85;2.55;;;13.80;89.40;;;;;;4920911;29;20043;-82
2022/12/21 16:16:55;;;;;;;9.10;2.15;;;13.80;89.70;;;;;;4920175;29;20104;-82
2022/12/21 16:19:24;;;;;;;12.10;2.15;;;13.80;89.70;;;;;;4934908;29;20047;-81
2022/12/21 16:21:50;;;;;;;13.98;2.25;;;13.70;89.70;;;;;;4921377;29;20032;-82
2022/12/21 16:24:16;;;;;;;8.65;2.45;;;13.70;89.60;;;;;;4920768;29;20032;-82
2022/12/21 16:26:43;;;;;;;7.30;2.00;;;13.70;89.80;;;;;;4920114;29;20400;-82
2022/12/21 16:29:22;;;;;;;10.82;2.10;;;13.70;89.80;;;;;;4920487;29;20096;-81
2022/12/21 16:31:50;;;;;;;7.53;2.13;;;13.60;89.90;;;;;;4933673;29;20075;-81
2022/12/21 16:34:37;;;;;;;8.68;2.63;;;13.70;90.00;;;;;;4938971;29;20035;-82
2022/12/21 16:37:19;;;;;;;10.55;4.35;;;13.70;90.00;;;;;;4938770;29;20043;-81
2022/12/21 16:39:50;;;;;;;8.75;2.90;;;13.70;90.10;;;;;;4910578;29;20042;-81
2022/12/21 16:42:16;;;;;;;15.52;4.03;;;13.70;90.20;;;;;;4939806;29;20035;-82
2022/12/21 16:44:44;;;;;;;10.10;3.20;;;13.70;90.10;;;;;;4925664;29;20028;-81
2022/12/21 16:47:16;;;;;;;11.98;4.05;;;13.60;89.90;;;;;;4934790;29;20534;-81
2022/12/21 16:49:43;;;;;;;10.32;3.03;;;13.60;90.20;;;;;;4935151;29;20083;-81
2022/12/21 16:52:46;;;;;;;11.98;3.38;;;13.60;90.40;;;;;;4935181;29;20031;-81
2022/12/21 16:55:19;;;;;;;5.47;2.40;;;13.60;90.50;;;;;;4930192;29;20156;-81
2022/12/21 16:57:51;;;;;;;7.88;2.28;;;13.60;90.30;;;;;;4937660;29;20102;-81
2022/12/21 17:00:28;;;;;;;4.53;1.77;;;13.60;90.30;;;;;;4931273;29;20024;-81
2022/12/21 17:03:00;;;;;;;5.57;2.40;;;13.50;90.20;;;;;;4938330;29;20039;-81
2022/12/21 17:05:34;;;;;;;10.10;2.28;;;13.60;90.40;;;;;;4939219;29;20024;-82
2022/12/21 17:08:03;;;;;;;6.32;2.45;;;13.60;90.30;;;;;;4937273;29;20020;-81
2022/12/21 17:10:29;;;;;;;5.65;2.55;;;13.60;90.30;;;;;;4931126;29;20011;-81
2022/12/21 17:13:05;;;;;;;4.45;2.45;;;13.60;90.20;;;;;;4928353;29;20046;-81
2022/12/21 17:15:46;;;;;;;4.57;1.98;;;13.60;90.30;;;;;;4937701;29;20024;-84
2022/12/21 17:18:36;;;;;;;6.93;2.05;;;13.70;90.30;;;;;;4934840;29;20031;-78
2022/12/21 17:21:23;;;;;;;4.38;1.83;;;13.60;90.20;;;;;;4929155;29;20538;-77
2022/12/21 17:24:01;;;;;;;3.85;1.60;;;13.60;90.30;;;;;;4922133;29;20888;-77
2022/12/21 17:26:39;;;;;;;4.60;1.80;;;13.60;90.20;;;;;;4935648;29;20028;-77
2022/12/21 17:29:06;;;;;;;4.63;1.90;;;13.60;90.20;;;;;;4935121;29;20043;-77
2022/12/21 17:31:34;;;;;;;2.55;1.40;;;13.70;90.40;;;;;;4931999;29;20048;-77
2022/12/21 17:34:23;;;;;;;9.13;2.10;;;13.70;90.40;;;;;;4936404;29;20036;-77
2022/12/21 17:36:49;;;;;;;9.85;1.75;;;13.70;90.50;;;;;;4936436;29;20049;-77
2022/12/21 17:39:18;;;;;;;17.63;2.08;;;13.70;90.50;;;;;;4936635;29;20039;-77
2022/12/21 17:41:46;;;;;;;7.40;2.33;;;13.70;90.40;;;;;;4935299;29;20060;-77
2022/12/21 17:44:11;;;;;;;14.20;2.22;;;13.70;90.40;;;;;;4936505;29;20031;-76
2022/12/21 17:46:39;;;;;;;8.48;1.65;;;13.70;90.20;;;;;;4932434;29;20039;-76
2022/12/21 17:49:09;;;;;;;11.07;2.95;;;13.70;90.40;;;;;;4929596;29;20035;-76
2022/12/21 17:51:35;;;;;;;;;;;13.80;90.40;;;;;;4929584;29;20031;-76
2022/12/21 17:54:01;;;;;;;11.27;2.30;;;13.80;90.40;;;;;;4932136;29;20483;-77
2022/12/21 17:56:26;;;;;;;16.38;2.92;;;13.80;90.30;;;;;;4935190;29;20070;-77
2022/12/21 17:58:52;;;;;;;11.13;2.55;;;13.80;90.10;;;;;;4932451;29;20035;-77
2022/12/21 18:01:27;;;;;;;18.25;3.60;;;13.80;90.20;;;;;;4935617;29;20031;-75
2022/12/21 18:03:53;;;;;;;13.13;2.55;;;13.80;90.10;;;;;;4931900;29;20043;-74
2022/12/21 18:06:20;;;;;;;14.02;2.47;;;13.80;90.30;;;;;;4934679;29;20031;-75
2022/12/21 18:08:47;;;;;;;12.05;2.58;;;13.80;90.10;;;;;;4926922;29;20020;-76
2022/12/21 18:11:21;;;;;;;22.00;3.47;;;13.80;90.10;;;;;;4934782;29;20032;-77
2022/12/21 18:13:50;;;;;;;19.83;3.13;;;13.80;90.10;;;;;;4932472;29;20019;-76
2022/12/21 18:16:27;;;;;;;21.10;3.47;;;13.80;89.90;;;;;;4935519;29;20111;-77
2022/12/21 18:18:53;;;;;;;23.63;3.80;;;13.80;89.90;;;;;;4933597;29;20034;-76
2022/12/21 18:21:22;;;;;;;22.75;3.72;;;13.80;89.90;;;;;;4929653;29;20107;-75
2022/12/21 18:23:48;;;;;;;23.00;3.90;;;13.80;89.90;;;;;;4929602;29;20035;-75
2022/12/21 18:26:16;;;;;;;24.40;3.97;;;13.80;89.70;;;;;;4933717;29;20105;-75
2022/12/21 18:28:42;;;;;;;29.45;4.10;;;13.80;89.80;;;;;;4930800;29;20566;-75
2022/12/21 18:31:12;;;;;;;20.48;3.55;;;13.80;89.90;;;;;;4934220;29;20198;-75
2022/12/21 18:33:48;;;;;;;25.45;3.58;;;13.80;89.80;;;;;;4930883;29;20519;-75
2022/12/21 18:36:19;;;;;;;29.70;5.18;;;13.80;89.70;;;;;;4926163;29;20034;-75
2022/12/21 18:38:45;;;;;;;28.13;4.65;;;13.90;89.80;;;;;;4927294;29;20035;-75
2022/12/21 18:41:14;;;;;;;28.88;4.38;;;13.80;89.80;;;;;;4935666;29;20075;-75
2022/12/21 18:43:40;;;;;;;21.17;4.32;;;13.80;89.80;;;;;;4929784;29;20095;-75
2022/12/21 18:46:20;;;;;;;27.50;4.32;;;13.80;90.00;;;;;;4934179;29;20570;-75